sensor_id;sensor_type;location;lat;lon;timestamp;P1;durP1;ratioP1;P2;durP2;ratioP2
16119;SDS011;12670;53.502;10.252;2023-06-26T00:01:47;9.77;;;8.07;;
16119;SDS011;12670;53.502;10.252;2023-06-26T00:04:49;13.33;;;7.73;;
16119;SDS011;12670;53.502;10.252;2023-06-26T00:07:56;11.97;;;8.17;;
16119;SDS011;12670;53.502;10.252;2023-06-26T00:11:01;9.80;;;7.97;;
16119;SDS011;12670;53.502;10.252;2023-06-26T00:14:04;8.93;;;7.97;;
16119;SDS011;12670;53.502;10.252;2023-06-26T00:17:07;9.48;;;7.68;;
16119;SDS011;12670;53.502;10.252;2023-06-26T00:20:10;10.35;;;8.13;;
16119;SDS011;12670;53.502;10.252;2023-06-26T00:23:15;10.77;;;8.25;;
16119;SDS011;12670;53.502;10.252;2023-06-26T00:26:18;10.27;;;8.10;;
16119;SDS011;12670;53.502;10.252;2023-06-26T00:29:21;11.48;;;7.35;;
16119;SDS011;12670;53.502;10.252;2023-06-26T00:32:24;9.07;;;7.60;;
16119;SDS011;12670;53.502;10.252;2023-06-26T00:35:26;8.93;;;7.43;;
16119;SDS011;12670;53.502;10.252;2023-06-26T00:38:31;11.27;;;7.68;;
16119;SDS011;12670;53.502;10.252;2023-06-26T00:41:33;10.10;;;7.30;;
16119;SDS011;12670;53.502;10.252;2023-06-26T00:44:36;12.35;;;7.63;;
16119;SDS011;12670;53.502;10.252;2023-06-26T00:47:39;12.43;;;7.65;;
16119;SDS011;12670;53.502;10.252;2023-06-26T00:50:42;10.15;;;7.50;;
16119;SDS011;12670;53.502;10.252;2023-06-26T00:53:46;10.02;;;8.20;;
16119;SDS011;12670;53.502;10.252;2023-06-26T00:56:50;11.80;;;8.10;;
16119;SDS011;12670;53.502;10.252;2023-06-26T00:59:52;10.73;;;7.97;;
16119;SDS011;12670;53.502;10.252;2023-06-26T01:02:55;11.48;;;8.25;;
16119;SDS011;12670;53.502;10.252;2023-06-26T01:06:01;10.23;;;7.47;;
16119;SDS011;12670;53.502;10.252;2023-06-26T01:09:05;10.35;;;7.90;;
16119;SDS011;12670;53.502;10.252;2023-06-26T01:12:08;9.40;;;8.00;;
16119;SDS011;12670;53.502;10.252;2023-06-26T01:15:11;9.02;;;7.82;;
16119;SDS011;12670;53.502;10.252;2023-06-26T01:18:13;11.40;;;7.72;;
16119;SDS011;12670;53.502;10.252;2023-06-26T01:21:18;10.43;;;7.93;;
16119;SDS011;12670;53.502;10.252;2023-06-26T01:24:22;9.88;;;7.63;;
16119;SDS011;12670;53.502;10.252;2023-06-26T01:27:35;9.67;;;7.57;;
16119;SDS011;12670;53.502;10.252;2023-06-26T01:30:41;8.80;;;7.30;;
16119;SDS011;12670;53.502;10.252;2023-06-26T01:33:45;10.73;;;7.70;;
16119;SDS011;12670;53.502;10.252;2023-06-26T01:36:49;8.20;;;7.28;;
16119;SDS011;12670;53.502;10.252;2023-06-26T01:39:52;9.57;;;7.67;;
16119;SDS011;12670;53.502;10.252;2023-06-26T01:42:56;8.73;;;7.37;;
16119;SDS011;12670;53.502;10.252;2023-06-26T01:46:01;9.05;;;6.57;;
16119;SDS011;12670;53.502;10.252;2023-06-26T01:49:08;13.27;;;7.17;;
16119;SDS011;12670;53.502;10.252;2023-06-26T01:52:16;9.97;;;7.20;;
16119;SDS011;12670;53.502;10.252;2023-06-26T01:55:26;10.20;;;7.50;;
16119;SDS011;12670;53.502;10.252;2023-06-26T01:58:38;9.23;;;7.27;;
16119;SDS011;12670;53.502;10.252;2023-06-26T02:01:45;9.40;;;7.40;;
16119;SDS011;12670;53.502;10.252;2023-06-26T02:04:49;9.43;;;7.03;;
16119;SDS011;12670;53.502;10.252;2023-06-26T02:07:51;11.47;;;7.37;;
16119;SDS011;12670;53.502;10.252;2023-06-26T02:10:54;9.30;;;7.27;;
16119;SDS011;12670;53.502;10.252;2023-06-26T02:13:58;8.87;;;6.97;;
16119;SDS011;12670;53.502;10.252;2023-06-26T02:17:01;7.73;;;6.80;;
16119;SDS011;12670;53.502;10.252;2023-06-26T02:20:04;7.57;;;6.50;;
16119;SDS011;12670;53.502;10.252;2023-06-26T02:23:10;7.87;;;6.50;;
16119;SDS011;12670;53.502;10.252;2023-06-26T02:26:13;9.77;;;7.37;;
16119;SDS011;12670;53.502;10.252;2023-06-26T02:29:17;11.53;;;7.10;;
16119;SDS011;12670;53.502;10.252;2023-06-26T02:32:20;8.40;;;6.50;;
16119;SDS011;12670;53.502;10.252;2023-06-26T02:35:23;11.10;;;7.40;;
16119;SDS011;12670;53.502;10.252;2023-06-26T02:38:25;9.03;;;7.10;;
16119;SDS011;12670;53.502;10.252;2023-06-26T02:41:28;8.10;;;6.90;;
16119;SDS011;12670;53.502;10.252;2023-06-26T02:44:32;8.80;;;6.93;;
16119;SDS011;12670;53.502;10.252;2023-06-26T02:47:35;8.70;;;7.20;;
16119;SDS011;12670;53.502;10.252;2023-06-26T02:50:40;9.77;;;6.77;;
16119;SDS011;12670;53.502;10.252;2023-06-26T02:53:47;8.90;;;6.80;;
16119;SDS011;12670;53.502;10.252;2023-06-26T02:56:49;8.97;;;6.80;;
16119;SDS011;12670;53.502;10.252;2023-06-26T02:59:53;8.30;;;6.77;;
16119;SDS011;12670;53.502;10.252;2023-06-26T03:02:56;9.47;;;6.43;;
16119;SDS011;12670;53.502;10.252;2023-06-26T03:05:59;10.20;;;6.70;;
16119;SDS011;12670;53.502;10.252;2023-06-26T03:09:02;11.07;;;6.53;;
16119;SDS011;12670;53.502;10.252;2023-06-26T03:12:05;11.27;;;6.73;;
16119;SDS011;12670;53.502;10.252;2023-06-26T03:15:09;10.07;;;6.50;;
16119;SDS011;12670;53.502;10.252;2023-06-26T03:18:13;9.13;;;6.70;;
16119;SDS011;12670;53.502;10.252;2023-06-26T03:21:17;8.60;;;6.93;;
16119;SDS011;12670;53.502;10.252;2023-06-26T03:24:20;8.33;;;6.30;;
16119;SDS011;12670;53.502;10.252;2023-06-26T03:27:22;9.47;;;6.70;;
16119;SDS011;12670;53.502;10.252;2023-06-26T03:30:26;9.47;;;7.07;;
16119;SDS011;12670;53.502;10.252;2023-06-26T03:33:29;11.37;;;6.83;;
16119;SDS011;12670;53.502;10.252;2023-06-26T03:36:32;8.80;;;6.80;;
16119;SDS011;12670;53.502;10.252;2023-06-26T03:39:34;11.10;;;7.03;;
16119;SDS011;12670;53.502;10.252;2023-06-26T03:42:37;9.57;;;6.70;;
16119;SDS011;12670;53.502;10.252;2023-06-26T03:45:41;11.10;;;6.25;;
16119;SDS011;12670;53.502;10.252;2023-06-26T03:48:44;8.70;;;6.80;;
16119;SDS011;12670;53.502;10.252;2023-06-26T03:51:47;10.77;;;7.17;;
16119;SDS011;12670;53.502;10.252;2023-06-26T03:54:49;8.63;;;7.23;;
16119;SDS011;12670;53.502;10.252;2023-06-26T03:57:52;10.17;;;7.03;;
16119;SDS011;12670;53.502;10.252;2023-06-26T04:00:56;10.73;;;6.73;;
16119;SDS011;12670;53.502;10.252;2023-06-26T04:03:59;8.67;;;6.90;;
16119;SDS011;12670;53.502;10.252;2023-06-26T04:07:02;8.87;;;6.57;;
16119;SDS011;12670;53.502;10.252;2023-06-26T04:10:05;8.43;;;6.73;;
16119;SDS011;12670;53.502;10.252;2023-06-26T04:13:09;10.03;;;7.10;;
16119;SDS011;12670;53.502;10.252;2023-06-26T04:16:13;15.27;;;6.90;;
16119;SDS011;12670;53.502;10.252;2023-06-26T04:19:17;11.87;;;6.73;;
16119;SDS011;12670;53.502;10.252;2023-06-26T04:22:19;9.83;;;6.83;;
16119;SDS011;12670;53.502;10.252;2023-06-26T04:25:22;11.33;;;6.80;;
16119;SDS011;12670;53.502;10.252;2023-06-26T04:28:25;10.03;;;6.97;;
16119;SDS011;12670;53.502;10.252;2023-06-26T04:31:29;9.27;;;6.90;;
16119;SDS011;12670;53.502;10.252;2023-06-26T04:34:31;8.32;;;6.75;;
16119;SDS011;12670;53.502;10.252;2023-06-26T04:37:36;7.73;;;6.33;;
16119;SDS011;12670;53.502;10.252;2023-06-26T04:40:40;13.07;;;8.90;;
16119;SDS011;12670;53.502;10.252;2023-06-26T04:43:42;14.02;;;7.28;;
16119;SDS011;12670;53.502;10.252;2023-06-26T04:46:46;14.05;;;9.65;;
16119;SDS011;12670;53.502;10.252;2023-06-26T04:49:49;16.10;;;9.60;;
16119;SDS011;12670;53.502;10.252;2023-06-26T04:52:52;15.05;;;9.10;;
16119;SDS011;12670;53.502;10.252;2023-06-26T04:55:54;14.38;;;8.05;;
16119;SDS011;12670;53.502;10.252;2023-06-26T04:58:57;9.55;;;7.18;;
16119;SDS011;12670;53.502;10.252;2023-06-26T05:02:01;21.27;;;12.20;;
16119;SDS011;12670;53.502;10.252;2023-06-26T05:05:04;9.65;;;6.78;;
16119;SDS011;12670;53.502;10.252;2023-06-26T05:08:13;9.57;;;6.80;;
16119;SDS011;12670;53.502;10.252;2023-06-26T05:11:17;12.75;;;7.80;;
16119;SDS011;12670;53.502;10.252;2023-06-26T05:14:20;11.90;;;8.20;;
16119;SDS011;12670;53.502;10.252;2023-06-26T05:17:26;10.57;;;7.63;;
16119;SDS011;12670;53.502;10.252;2023-06-26T05:20:30;8.70;;;6.70;;
16119;SDS011;12670;53.502;10.252;2023-06-26T05:23:33;9.40;;;6.95;;
16119;SDS011;12670;53.502;10.252;2023-06-26T05:26:36;10.80;;;6.88;;
16119;SDS011;12670;53.502;10.252;2023-06-26T05:29:39;8.50;;;6.55;;
16119;SDS011;12670;53.502;10.252;2023-06-26T05:32:44;10.07;;;7.07;;
16119;SDS011;12670;53.502;10.252;2023-06-26T05:35:50;9.52;;;7.22;;
16119;SDS011;12670;53.502;10.252;2023-06-26T05:38:54;10.95;;;7.85;;
16119;SDS011;12670;53.502;10.252;2023-06-26T05:41:58;15.35;;;8.65;;
16119;SDS011;12670;53.502;10.252;2023-06-26T05:45:01;10.68;;;7.05;;
16119;SDS011;12670;53.502;10.252;2023-06-26T05:48:05;14.32;;;9.05;;
16119;SDS011;12670;53.502;10.252;2023-06-26T05:51:09;10.10;;;6.90;;
16119;SDS011;12670;53.502;10.252;2023-06-26T05:54:12;22.67;;;13.77;;
16119;SDS011;12670;53.502;10.252;2023-06-26T05:57:15;15.65;;;9.30;;
16119;SDS011;12670;53.502;10.252;2023-06-26T06:00:18;17.08;;;12.55;;
16119;SDS011;12670;53.502;10.252;2023-06-26T06:03:23;9.90;;;6.68;;
16119;SDS011;12670;53.502;10.252;2023-06-26T06:06:26;20.58;;;11.70;;
16119;SDS011;12670;53.502;10.252;2023-06-26T06:09:29;17.52;;;11.75;;
16119;SDS011;12670;53.502;10.252;2023-06-26T06:12:31;20.10;;;12.60;;
16119;SDS011;12670;53.502;10.252;2023-06-26T06:15:34;27.73;;;17.05;;
16119;SDS011;12670;53.502;10.252;2023-06-26T06:18:38;10.98;;;8.00;;
16119;SDS011;12670;53.502;10.252;2023-06-26T06:21:41;11.73;;;7.72;;
16119;SDS011;12670;53.502;10.252;2023-06-26T06:24:44;10.40;;;7.63;;
16119;SDS011;12670;53.502;10.252;2023-06-26T06:27:47;18.83;;;12.43;;
16119;SDS011;12670;53.502;10.252;2023-06-26T06:30:49;11.30;;;8.13;;
16119;SDS011;12670;53.502;10.252;2023-06-26T06:33:54;16.05;;;9.40;;
16119;SDS011;12670;53.502;10.252;2023-06-26T06:36:57;18.20;;;12.63;;
16119;SDS011;12670;53.502;10.252;2023-06-26T06:39:59;18.13;;;12.35;;
16119;SDS011;12670;53.502;10.252;2023-06-26T06:43:02;14.25;;;9.35;;
16119;SDS011;12670;53.502;10.252;2023-06-26T06:46:05;32.78;;;19.65;;
16119;SDS011;12670;53.502;10.252;2023-06-26T06:49:09;10.25;;;6.55;;
16119;SDS011;12670;53.502;10.252;2023-06-26T06:52:11;10.93;;;6.18;;
16119;SDS011;12670;53.502;10.252;2023-06-26T06:55:14;16.60;;;11.07;;
16119;SDS011;12670;53.502;10.252;2023-06-26T06:58:17;8.85;;;6.72;;
16119;SDS011;12670;53.502;10.252;2023-06-26T07:01:20;11.93;;;7.35;;
16119;SDS011;12670;53.502;10.252;2023-06-26T07:04:24;16.70;;;7.97;;
16119;SDS011;12670;53.502;10.252;2023-06-26T07:07:28;18.13;;;13.40;;
16119;SDS011;12670;53.502;10.252;2023-06-26T07:10:33;9.35;;;5.80;;
16119;SDS011;12670;53.502;10.252;2023-06-26T07:13:35;14.55;;;9.50;;
16119;SDS011;12670;53.502;10.252;2023-06-26T07:16:38;12.50;;;7.45;;
16119;SDS011;12670;53.502;10.252;2023-06-26T07:19:42;13.63;;;9.38;;
16119;SDS011;12670;53.502;10.252;2023-06-26T07:22:45;13.85;;;9.00;;
16119;SDS011;12670;53.502;10.252;2023-06-26T07:25:48;8.95;;;6.15;;
16119;SDS011;12670;53.502;10.252;2023-06-26T07:28:51;8.15;;;5.80;;
16119;SDS011;12670;53.502;10.252;2023-06-26T07:31:53;20.88;;;13.20;;
16119;SDS011;12670;53.502;10.252;2023-06-26T07:34:57;14.55;;;7.30;;
16119;SDS011;12670;53.502;10.252;2023-06-26T07:38:00;10.63;;;6.13;;
16119;SDS011;12670;53.502;10.252;2023-06-26T07:41:03;15.43;;;10.13;;
16119;SDS011;12670;53.502;10.252;2023-06-26T07:44:05;12.18;;;8.10;;
16119;SDS011;12670;53.502;10.252;2023-06-26T07:47:08;8.95;;;6.40;;
16119;SDS011;12670;53.502;10.252;2023-06-26T07:50:12;9.77;;;7.30;;
16119;SDS011;12670;53.502;10.252;2023-06-26T07:53:20;7.88;;;6.13;;
16119;SDS011;12670;53.502;10.252;2023-06-26T07:56:23;16.60;;;12.00;;
16119;SDS011;12670;53.502;10.252;2023-06-26T07:59:26;15.70;;;10.27;;
16119;SDS011;12670;53.502;10.252;2023-06-26T08:02:30;9.10;;;6.15;;
16119;SDS011;12670;53.502;10.252;2023-06-26T08:05:34;9.63;;;5.60;;
16119;SDS011;12670;53.502;10.252;2023-06-26T08:08:37;8.48;;;5.82;;
16119;SDS011;12670;53.502;10.252;2023-06-26T08:11:39;15.23;;;9.27;;
16119;SDS011;12670;53.502;10.252;2023-06-26T08:14:42;10.40;;;7.68;;
16119;SDS011;12670;53.502;10.252;2023-06-26T08:17:45;17.58;;;11.48;;
16119;SDS011;12670;53.502;10.252;2023-06-26T08:20:49;7.95;;;6.03;;
16119;SDS011;12670;53.502;10.252;2023-06-26T08:23:52;8.30;;;5.32;;
16119;SDS011;12670;53.502;10.252;2023-06-26T08:26:54;10.23;;;7.32;;
16119;SDS011;12670;53.502;10.252;2023-06-26T08:29:57;8.02;;;6.05;;
16119;SDS011;12670;53.502;10.252;2023-06-26T08:33:00;11.25;;;7.05;;
16119;SDS011;12670;53.502;10.252;2023-06-26T08:36:04;8.65;;;6.28;;
16119;SDS011;12670;53.502;10.252;2023-06-26T08:39:08;7.00;;;5.80;;
16119;SDS011;12670;53.502;10.252;2023-06-26T08:42:11;12.10;;;6.43;;
16119;SDS011;12670;53.502;10.252;2023-06-26T08:45:14;15.13;;;11.45;;
16119;SDS011;12670;53.502;10.252;2023-06-26T08:48:17;8.95;;;6.03;;
16119;SDS011;12670;53.502;10.252;2023-06-26T08:51:21;18.67;;;11.32;;
16119;SDS011;12670;53.502;10.252;2023-06-26T08:54:27;9.63;;;6.75;;
16119;SDS011;12670;53.502;10.252;2023-06-26T08:57:33;12.02;;;6.32;;
16119;SDS011;12670;53.502;10.252;2023-06-26T09:00:36;11.73;;;8.15;;
16119;SDS011;12670;53.502;10.252;2023-06-26T09:03:39;9.65;;;6.50;;
16119;SDS011;12670;53.502;10.252;2023-06-26T09:06:45;17.00;;;11.07;;
16119;SDS011;12670;53.502;10.252;2023-06-26T09:09:47;10.77;;;6.47;;
16119;SDS011;12670;53.502;10.252;2023-06-26T09:12:50;8.20;;;6.40;;
16119;SDS011;12670;53.502;10.252;2023-06-26T09:15:54;8.45;;;6.57;;
16119;SDS011;12670;53.502;10.252;2023-06-26T09:18:57;9.35;;;6.10;;
16119;SDS011;12670;53.502;10.252;2023-06-26T09:22:01;19.88;;;13.43;;
16119;SDS011;12670;53.502;10.252;2023-06-26T09:25:04;11.73;;;6.57;;
16119;SDS011;12670;53.502;10.252;2023-06-26T09:28:08;9.48;;;6.72;;
16119;SDS011;12670;53.502;10.252;2023-06-26T09:31:12;11.25;;;6.28;;
16119;SDS011;12670;53.502;10.252;2023-06-26T09:34:31;9.15;;;6.28;;
16119;SDS011;12670;53.502;10.252;2023-06-26T09:37:36;9.88;;;6.18;;
16119;SDS011;12670;53.502;10.252;2023-06-26T09:40:39;8.80;;;6.05;;
16119;SDS011;12670;53.502;10.252;2023-06-26T09:43:46;8.45;;;6.35;;
16119;SDS011;12670;53.502;10.252;2023-06-26T09:46:48;11.23;;;7.07;;
16119;SDS011;12670;53.502;10.252;2023-06-26T09:49:51;11.77;;;6.82;;
16119;SDS011;12670;53.502;10.252;2023-06-26T09:52:57;14.65;;;7.68;;
16119;SDS011;12670;53.502;10.252;2023-06-26T09:56:04;11.85;;;7.28;;
16119;SDS011;12670;53.502;10.252;2023-06-26T09:59:07;9.38;;;6.90;;
16119;SDS011;12670;53.502;10.252;2023-06-26T10:02:10;10.85;;;7.47;;
16119;SDS011;12670;53.502;10.252;2023-06-26T10:05:14;14.65;;;8.90;;
16119;SDS011;12670;53.502;10.252;2023-06-26T10:08:18;9.82;;;7.18;;
16119;SDS011;12670;53.502;10.252;2023-06-26T10:11:21;17.05;;;8.13;;
16119;SDS011;12670;53.502;10.252;2023-06-26T10:14:26;13.52;;;7.78;;
16119;SDS011;12670;53.502;10.252;2023-06-26T10:17:30;12.82;;;7.80;;
16119;SDS011;12670;53.502;10.252;2023-06-26T10:20:37;11.70;;;7.68;;
16119;SDS011;12670;53.502;10.252;2023-06-26T10:23:42;10.02;;;7.25;;
16119;SDS011;12670;53.502;10.252;2023-06-26T10:26:47;10.38;;;8.02;;
16119;SDS011;12670;53.502;10.252;2023-06-26T10:29:54;13.05;;;9.02;;
16119;SDS011;12670;53.502;10.252;2023-06-26T10:32:59;12.05;;;8.10;;
16119;SDS011;12670;53.502;10.252;2023-06-26T10:36:12;15.77;;;9.30;;
16119;SDS011;12670;53.502;10.252;2023-06-26T10:39:18;26.58;;;11.00;;
16119;SDS011;12670;53.502;10.252;2023-06-26T10:42:28;24.85;;;10.20;;
16119;SDS011;12670;53.502;10.252;2023-06-26T10:45:37;14.55;;;8.40;;
16119;SDS011;12670;53.502;10.252;2023-06-26T10:48:55;14.40;;;9.50;;
16119;SDS011;12670;53.502;10.252;2023-06-26T10:52:00;18.73;;;9.77;;
16119;SDS011;12670;53.502;10.252;2023-06-26T10:55:05;17.15;;;9.13;;
16119;SDS011;12670;53.502;10.252;2023-06-26T11:01:35;15.80;;;9.43;;
16119;SDS011;12670;53.502;10.252;2023-06-26T11:04:44;16.48;;;8.88;;
16119;SDS011;12670;53.502;10.252;2023-06-26T11:08:02;12.60;;;8.18;;
16119;SDS011;12670;53.502;10.252;2023-06-26T11:11:07;10.10;;;7.28;;
16119;SDS011;12670;53.502;10.252;2023-06-26T11:14:09;14.80;;;8.25;;
16119;SDS011;12670;53.502;10.252;2023-06-26T11:17:13;10.45;;;7.80;;
16119;SDS011;12670;53.502;10.252;2023-06-26T11:20:17;13.50;;;7.80;;
16119;SDS011;12670;53.502;10.252;2023-06-26T11:23:22;15.63;;;8.90;;
16119;SDS011;12670;53.502;10.252;2023-06-26T11:26:28;14.52;;;8.90;;
16119;SDS011;12670;53.502;10.252;2023-06-26T11:29:31;12.85;;;8.80;;
16119;SDS011;12670;53.502;10.252;2023-06-26T11:32:35;14.00;;;8.43;;
16119;SDS011;12670;53.502;10.252;2023-06-26T11:35:39;14.15;;;8.80;;
16119;SDS011;12670;53.502;10.252;2023-06-26T11:38:41;11.82;;;8.25;;
16119;SDS011;12670;53.502;10.252;2023-06-26T11:41:45;12.70;;;7.85;;
16119;SDS011;12670;53.502;10.252;2023-06-26T11:44:48;13.57;;;7.25;;
16119;SDS011;12670;53.502;10.252;2023-06-26T11:47:51;11.20;;;6.70;;
16119;SDS011;12670;53.502;10.252;2023-06-26T11:50:54;12.32;;;6.75;;
16119;SDS011;12670;53.502;10.252;2023-06-26T11:53:57;15.30;;;6.03;;
16119;SDS011;12670;53.502;10.252;2023-06-26T11:57:01;14.52;;;6.30;;
16119;SDS011;12670;53.502;10.252;2023-06-26T12:00:13;14.45;;;5.68;;
16119;SDS011;12670;53.502;10.252;2023-06-26T12:03:17;18.15;;;8.25;;
16119;SDS011;12670;53.502;10.252;2023-06-26T12:06:19;10.77;;;4.53;;
16119;SDS011;12670;53.502;10.252;2023-06-26T12:09:22;14.50;;;5.13;;
16119;SDS011;12670;53.502;10.252;2023-06-26T12:12:27;14.82;;;4.15;;
16119;SDS011;12670;53.502;10.252;2023-06-26T12:15:30;12.18;;;3.65;;
16119;SDS011;12670;53.502;10.252;2023-06-26T12:18:34;14.57;;;5.18;;
16119;SDS011;12670;53.502;10.252;2023-06-26T12:21:46;9.70;;;3.65;;
16119;SDS011;12670;53.502;10.252;2023-06-26T12:24:56;10.95;;;3.22;;
16119;SDS011;12670;53.502;10.252;2023-06-26T12:28:00;12.73;;;2.90;;
16119;SDS011;12670;53.502;10.252;2023-06-26T12:34:34;8.38;;;3.00;;
16119;SDS011;12670;53.502;10.252;2023-06-26T12:37:38;9.35;;;3.50;;
16119;SDS011;12670;53.502;10.252;2023-06-26T12:40:46;7.55;;;2.47;;
16119;SDS011;12670;53.502;10.252;2023-06-26T12:43:56;11.60;;;3.05;;
16119;SDS011;12670;53.502;10.252;2023-06-26T12:46:59;11.30;;;3.28;;
16119;SDS011;12670;53.502;10.252;2023-06-26T12:50:04;8.98;;;2.63;;
16119;SDS011;12670;53.502;10.252;2023-06-26T12:53:08;9.07;;;3.08;;
16119;SDS011;12670;53.502;10.252;2023-06-26T12:56:11;9.27;;;2.80;;
16119;SDS011;12670;53.502;10.252;2023-06-26T12:59:15;10.35;;;3.35;;
16119;SDS011;12670;53.502;10.252;2023-06-26T13:02:18;8.20;;;2.50;;
16119;SDS011;12670;53.502;10.252;2023-06-26T13:05:21;12.25;;;3.40;;
16119;SDS011;12670;53.502;10.252;2023-06-26T13:08:24;7.28;;;2.30;;
16119;SDS011;12670;53.502;10.252;2023-06-26T13:11:27;12.13;;;2.33;;
16119;SDS011;12670;53.502;10.252;2023-06-26T13:14:31;7.05;;;2.33;;
16119;SDS011;12670;53.502;10.252;2023-06-26T13:17:34;7.18;;;2.63;;
16119;SDS011;12670;53.502;10.252;2023-06-26T13:20:36;7.65;;;3.63;;
16119;SDS011;12670;53.502;10.252;2023-06-26T13:23:40;8.50;;;3.78;;
16119;SDS011;12670;53.502;10.252;2023-06-26T13:26:42;4.68;;;2.05;;
16119;SDS011;12670;53.502;10.252;2023-06-26T13:29:47;5.95;;;2.67;;
16119;SDS011;12670;53.502;10.252;2023-06-26T13:32:49;5.43;;;2.10;;
16119;SDS011;12670;53.502;10.252;2023-06-26T13:35:52;10.80;;;4.85;;
16119;SDS011;12670;53.502;10.252;2023-06-26T13:38:55;5.90;;;2.00;;
16119;SDS011;12670;53.502;10.252;2023-06-26T13:41:57;9.35;;;2.40;;
16119;SDS011;12670;53.502;10.252;2023-06-26T13:45:03;5.97;;;1.98;;
16119;SDS011;12670;53.502;10.252;2023-06-26T13:48:15;9.20;;;2.30;;
16119;SDS011;12670;53.502;10.252;2023-06-26T13:51:19;8.70;;;2.15;;
16119;SDS011;12670;53.502;10.252;2023-06-26T13:54:21;5.30;;;2.08;;
16119;SDS011;12670;53.502;10.252;2023-06-26T13:57:25;5.85;;;2.50;;
16119;SDS011;12670;53.502;10.252;2023-06-26T14:00:30;6.20;;;2.45;;
16119;SDS011;12670;53.502;10.252;2023-06-26T14:03:32;8.13;;;2.10;;
16119;SDS011;12670;53.502;10.252;2023-06-26T14:06:35;10.57;;;2.30;;
16119;SDS011;12670;53.502;10.252;2023-06-26T14:09:38;6.30;;;2.78;;
16119;SDS011;12670;53.502;10.252;2023-06-26T14:12:41;7.18;;;2.45;;
16119;SDS011;12670;53.502;10.252;2023-06-26T14:15:45;9.88;;;2.72;;
16119;SDS011;12670;53.502;10.252;2023-06-26T14:18:47;5.88;;;1.80;;
16119;SDS011;12670;53.502;10.252;2023-06-26T14:21:51;6.18;;;2.08;;
16119;SDS011;12670;53.502;10.252;2023-06-26T14:24:53;5.97;;;2.17;;
16119;SDS011;12670;53.502;10.252;2023-06-26T14:27:56;3.83;;;1.80;;
16119;SDS011;12670;53.502;10.252;2023-06-26T14:31:02;7.65;;;2.28;;
16119;SDS011;12670;53.502;10.252;2023-06-26T14:34:05;6.05;;;1.98;;
16119;SDS011;12670;53.502;10.252;2023-06-26T14:37:07;2.83;;;1.52;;
16119;SDS011;12670;53.502;10.252;2023-06-26T14:40:11;3.47;;;1.85;;
16119;SDS011;12670;53.502;10.252;2023-06-26T14:43:14;7.10;;;2.00;;
16119;SDS011;12670;53.502;10.252;2023-06-26T14:46:19;4.78;;;2.33;;
16119;SDS011;12670;53.502;10.252;2023-06-26T14:49:22;3.80;;;1.83;;
16119;SDS011;12670;53.502;10.252;2023-06-26T14:52:25;9.02;;;2.10;;
16119;SDS011;12670;53.502;10.252;2023-06-26T14:55:27;8.45;;;2.00;;
16119;SDS011;12670;53.502;10.252;2023-06-26T14:58:30;10.80;;;1.83;;
16119;SDS011;12670;53.502;10.252;2023-06-26T15:01:34;6.00;;;1.92;;
16119;SDS011;12670;53.502;10.252;2023-06-26T15:04:37;11.95;;;2.20;;
16119;SDS011;12670;53.502;10.252;2023-06-26T15:07:39;4.57;;;2.78;;
16119;SDS011;12670;53.502;10.252;2023-06-26T15:10:42;7.38;;;3.00;;
16119;SDS011;12670;53.502;10.252;2023-06-26T15:13:45;3.72;;;1.80;;
16119;SDS011;12670;53.502;10.252;2023-06-26T15:16:49;2.97;;;1.75;;
16119;SDS011;12670;53.502;10.252;2023-06-26T15:19:51;5.30;;;1.88;;
16119;SDS011;12670;53.502;10.252;2023-06-26T15:22:54;3.13;;;1.58;;
16119;SDS011;12670;53.502;10.252;2023-06-26T15:25:59;5.32;;;1.55;;
16119;SDS011;12670;53.502;10.252;2023-06-26T15:29:02;3.72;;;1.50;;
16119;SDS011;12670;53.502;10.252;2023-06-26T15:32:07;5.15;;;1.58;;
16119;SDS011;12670;53.502;10.252;2023-06-26T15:35:10;4.03;;;1.60;;
16119;SDS011;12670;53.502;10.252;2023-06-26T15:38:13;4.57;;;1.67;;
16119;SDS011;12670;53.502;10.252;2023-06-26T15:41:15;3.85;;;1.38;;
16119;SDS011;12670;53.502;10.252;2023-06-26T15:44:18;5.32;;;1.60;;
16119;SDS011;12670;53.502;10.252;2023-06-26T15:47:22;4.68;;;1.55;;
16119;SDS011;12670;53.502;10.252;2023-06-26T15:50:25;8.65;;;1.65;;
16119;SDS011;12670;53.502;10.252;2023-06-26T15:53:33;3.65;;;1.73;;
16119;SDS011;12670;53.502;10.252;2023-06-26T15:56:38;7.60;;;1.58;;
16119;SDS011;12670;53.502;10.252;2023-06-26T15:59:41;2.15;;;1.30;;
16119;SDS011;12670;53.502;10.252;2023-06-26T16:02:45;2.63;;;1.35;;
16119;SDS011;12670;53.502;10.252;2023-06-26T16:05:49;10.95;;;2.08;;
16119;SDS011;12670;53.502;10.252;2023-06-26T16:08:52;5.90;;;1.73;;
16119;SDS011;12670;53.502;10.252;2023-06-26T16:11:54;8.38;;;1.42;;
16119;SDS011;12670;53.502;10.252;2023-06-26T16:14:57;4.38;;;1.52;;
16119;SDS011;12670;53.502;10.252;2023-06-26T16:18:01;3.92;;;1.20;;
16119;SDS011;12670;53.502;10.252;2023-06-26T16:21:04;3.47;;;1.30;;
16119;SDS011;12670;53.502;10.252;2023-06-26T16:24:07;13.48;;;5.15;;
16119;SDS011;12670;53.502;10.252;2023-06-26T16:27:10;12.07;;;5.90;;
16119;SDS011;12670;53.502;10.252;2023-06-26T16:30:13;9.00;;;1.65;;
16119;SDS011;12670;53.502;10.252;2023-06-26T16:33:18;5.80;;;2.13;;
16119;SDS011;12670;53.502;10.252;2023-06-26T16:36:20;5.50;;;1.60;;
16119;SDS011;12670;53.502;10.252;2023-06-26T16:39:23;3.60;;;1.40;;
16119;SDS011;12670;53.502;10.252;2023-06-26T16:42:26;8.07;;;2.10;;
16119;SDS011;12670;53.502;10.252;2023-06-26T16:45:28;5.20;;;2.10;;
16119;SDS011;12670;53.502;10.252;2023-06-26T16:48:32;4.97;;;1.70;;
16119;SDS011;12670;53.502;10.252;2023-06-26T16:51:35;9.18;;;2.50;;
16119;SDS011;12670;53.502;10.252;2023-06-26T16:54:37;7.47;;;2.15;;
16119;SDS011;12670;53.502;10.252;2023-06-26T16:57:40;4.78;;;1.80;;
16119;SDS011;12670;53.502;10.252;2023-06-26T17:00:44;6.20;;;1.95;;
16119;SDS011;12670;53.502;10.252;2023-06-26T17:03:48;8.43;;;1.98;;
16119;SDS011;12670;53.502;10.252;2023-06-26T17:06:52;5.38;;;1.88;;
16119;SDS011;12670;53.502;10.252;2023-06-26T17:09:55;4.25;;;1.55;;
16119;SDS011;12670;53.502;10.252;2023-06-26T17:12:58;4.40;;;1.85;;
16119;SDS011;12670;53.502;10.252;2023-06-26T17:16:01;5.60;;;2.17;;
16119;SDS011;12670;53.502;10.252;2023-06-26T17:19:05;5.72;;;1.90;;
16119;SDS011;12670;53.502;10.252;2023-06-26T17:22:08;3.92;;;1.92;;
16119;SDS011;12670;53.502;10.252;2023-06-26T17:25:10;10.02;;;3.65;;
16119;SDS011;12670;53.502;10.252;2023-06-26T17:28:13;11.30;;;2.47;;
16119;SDS011;12670;53.502;10.252;2023-06-26T17:31:16;9.05;;;3.10;;
16119;SDS011;12670;53.502;10.252;2023-06-26T17:34:20;6.30;;;2.50;;
16119;SDS011;12670;53.502;10.252;2023-06-26T17:37:22;11.95;;;6.57;;
16119;SDS011;12670;53.502;10.252;2023-06-26T17:40:25;4.15;;;2.15;;
16119;SDS011;12670;53.502;10.252;2023-06-26T17:43:28;4.82;;;1.73;;
16119;SDS011;12670;53.502;10.252;2023-06-26T17:46:31;7.85;;;2.13;;
16119;SDS011;12670;53.502;10.252;2023-06-26T17:49:35;9.15;;;1.95;;
16119;SDS011;12670;53.502;10.252;2023-06-26T17:52:37;6.18;;;2.40;;
16119;SDS011;12670;53.502;10.252;2023-06-26T17:55:40;5.68;;;2.30;;
16119;SDS011;12670;53.502;10.252;2023-06-26T17:58:43;7.60;;;1.90;;
16119;SDS011;12670;53.502;10.252;2023-06-26T18:01:47;7.65;;;2.00;;
16119;SDS011;12670;53.502;10.252;2023-06-26T18:04:51;6.35;;;1.98;;
16119;SDS011;12670;53.502;10.252;2023-06-26T18:07:55;7.63;;;2.42;;
16119;SDS011;12670;53.502;10.252;2023-06-26T18:11:04;11.00;;;2.30;;